createdAt,value
2022-08-26T00:00:51.263Z,19.48
2022-08-26T00:03:18.459Z,19.63
2022-08-26T00:05:46.407Z,19.35
2022-08-26T00:08:14.244Z,19.25
2022-08-26T00:10:41.169Z,19.15
2022-08-26T00:13:07.994Z,19.22
2022-08-26T00:15:35.330Z,19.34
2022-08-26T00:18:01.790Z,19.30
2022-08-26T00:20:29.515Z,19.32
2022-08-26T00:22:57.418Z,19.15
2022-08-26T00:25:25.571Z,19.26
2022-08-26T00:27:52.716Z,19.40
2022-08-26T00:30:22.784Z,19.49
2022-08-26T00:32:50.812Z,19.39
2022-08-26T00:35:19.061Z,19.07
2022-08-26T00:37:45.658Z,18.97
2022-08-26T00:40:15.618Z,19.00
2022-08-26T00:42:45.826Z,19.05
2022-08-26T00:45:13.826Z,19.20
2022-08-26T00:47:44.114Z,19.33
2022-08-26T00:50:13.602Z,19.36
2022-08-26T00:52:42.830Z,19.49
2022-08-26T00:55:20.382Z,19.24
2022-08-26T00:57:48.379Z,19.28
2022-08-26T01:00:17.555Z,19.26
2022-08-26T01:02:46.920Z,19.06
2022-08-26T01:05:14.284Z,18.97
2022-08-26T01:07:40.867Z,18.86
2022-08-26T01:10:08.973Z,18.92
2022-08-26T01:12:38.898Z,18.93
2022-08-26T01:15:07.646Z,18.88
2022-08-26T01:17:38.469Z,19.00
2022-08-26T01:20:25.850Z,19.03
2022-08-26T01:23:01.548Z,19.02
2022-08-26T01:25:32.727Z,18.88
2022-08-26T01:28:01.761Z,18.83
2022-08-26T01:30:29.853Z,18.86
2022-08-26T01:32:58.309Z,18.86
2022-08-26T01:35:24.888Z,18.88
2022-08-26T01:37:53.715Z,18.88
2022-08-26T01:40:32.602Z,18.96
2022-08-26T01:43:01.205Z,19.03
2022-08-26T01:45:30.420Z,19.05
2022-08-26T01:47:58.445Z,18.94
2022-08-26T01:50:31.760Z,19.09
2022-08-26T01:53:01.089Z,19.48
2022-08-26T01:55:33.149Z,19.72
2022-08-26T01:58:01.238Z,19.81
2022-08-26T02:00:28.075Z,19.47
2022-08-26T02:03:15.903Z,19.21
2022-08-26T02:05:51.326Z,18.94
2022-08-26T02:08:20.602Z,18.98
2022-08-26T02:10:51.535Z,18.73
2022-08-26T02:13:21.921Z,18.73
2022-08-26T02:15:49.286Z,18.87
2022-08-26T02:18:16.542Z,18.84
2022-08-26T02:20:43.094Z,18.87
2022-08-26T02:23:10.046Z,19.78
2022-08-26T02:25:44.720Z,19.09
2022-08-26T02:28:12.592Z,18.83
2022-08-26T02:30:40.408Z,18.83
2022-08-26T02:33:07.041Z,18.92
2022-08-26T02:35:35.565Z,18.90
2022-08-26T02:38:02.615Z,18.68
2022-08-26T02:40:40.530Z,18.75
2022-08-26T02:43:08.773Z,18.87
2022-08-26T02:45:35.717Z,18.87
2022-08-26T02:48:09.218Z,18.96
2022-08-26T02:50:37.978Z,18.61
2022-08-26T02:53:06.376Z,18.55
2022-08-26T02:55:33.030Z,18.60
2022-08-26T02:57:59.932Z,18.67
2022-08-26T03:00:27.426Z,18.70
2022-08-26T03:02:54.408Z,19.21
2022-08-26T03:05:22.140Z,19.01
2022-08-26T03:07:50.897Z,18.98
2022-08-26T03:10:17.603Z,18.81
2022-08-26T03:12:47.522Z,18.68
2022-08-26T03:15:17.861Z,18.70
2022-08-26T03:17:46.427Z,18.69
2022-08-26T03:20:13.662Z,18.71
2022-08-26T03:22:42.147Z,18.38
2022-08-26T03:25:10.130Z,18.49
2022-08-26T03:27:36.769Z,18.59
2022-08-26T03:30:22.531Z,18.60
2022-08-26T03:32:49.362Z,18.59
2022-08-26T03:35:16.468Z,18.41
2022-08-26T03:37:43.537Z,18.21
2022-08-26T03:40:11.541Z,18.28
2022-08-26T03:42:39.306Z,18.42
2022-08-26T03:45:07.345Z,18.59
2022-08-26T03:47:33.870Z,18.34
2022-08-26T03:50:01.015Z,18.70
2022-08-26T03:52:27.923Z,18.67
2022-08-26T03:54:54.406Z,18.46
2022-08-26T03:57:20.887Z,18.46
2022-08-26T03:59:48.958Z,18.55
2022-08-26T04:02:15.603Z,18.64
2022-08-26T04:04:43.270Z,18.77
2022-08-26T04:07:09.796Z,19.06
2022-08-26T04:09:36.656Z,18.66
2022-08-26T04:12:04.458Z,18.46
2022-08-26T04:14:32.278Z,18.31
2022-08-26T04:16:59.058Z,18.21
2022-08-26T04:19:25.962Z,18.35
2022-08-26T04:21:53.313Z,18.17
2022-08-26T04:24:21.247Z,18.13
2022-08-26T04:26:48.249Z,18.25
2022-08-26T04:29:18.007Z,18.44
2022-08-26T04:31:45.327Z,18.24
2022-08-26T04:34:11.953Z,18.08
2022-08-26T04:36:41.242Z,18.24
2022-08-26T04:39:11.992Z,18.16
2022-08-26T04:41:39.234Z,18.15
2022-08-26T04:44:07.059Z,18.41
2022-08-26T04:46:33.729Z,18.53
2022-08-26T04:49:00.345Z,18.53
2022-08-26T04:51:29.755Z,18.46
2022-08-26T04:53:57.603Z,18.62
2022-08-26T04:56:29.467Z,18.80
2022-08-26T04:58:56.555Z,18.91
2022-08-26T05:01:23.876Z,19.07
2022-08-26T05:03:51.044Z,19.19
2022-08-26T05:06:19.070Z,19.33
2022-08-26T05:08:45.698Z,19.41
2022-08-26T05:11:12.735Z,19.56
2022-08-26T05:13:39.348Z,19.62
2022-08-26T05:16:07.439Z,19.74
2022-08-26T05:18:34.682Z,19.85
2022-08-26T05:21:02.933Z,20.05
2022-08-26T05:23:31.398Z,20.19
2022-08-26T05:26:00.315Z,20.16
2022-08-26T05:28:28.369Z,20.34
2022-08-26T05:30:55.645Z,20.55
2022-08-26T05:33:22.898Z,20.71
2022-08-26T05:35:49.447Z,20.79
2022-08-26T05:38:17.650Z,20.83
2022-08-26T05:40:45.849Z,20.98
2022-08-26T05:43:13.433Z,21.42
2022-08-26T05:45:46.084Z,21.41
2022-08-26T05:48:13.688Z,21.30
2022-08-26T05:50:41.446Z,21.28
2022-08-26T05:53:10.645Z,21.13
2022-08-26T05:55:44.421Z,21.58
2022-08-26T05:58:11.439Z,21.68
2022-08-26T06:00:38.546Z,21.74
2022-08-26T06:03:09.511Z,21.80
2022-08-26T06:05:40.020Z,21.85
2022-08-26T06:08:19.180Z,22.26
2022-08-26T06:10:47.662Z,22.24
2022-08-26T06:13:16.018Z,22.49
2022-08-26T06:15:45.634Z,23.06
2022-08-26T06:18:14.507Z,23.11
2022-08-26T06:20:44.122Z,22.59
2022-08-26T06:23:43.992Z,23.10
2022-08-26T06:26:11.293Z,23.76
2022-08-26T06:28:38.122Z,23.95
2022-08-26T06:31:06.033Z,24.20
2022-08-26T06:33:32.768Z,24.06
2022-08-26T06:36:01.040Z,24.21
2022-08-26T06:38:28.544Z,24.53
2022-08-26T06:40:55.078Z,23.84
2022-08-26T06:43:23.754Z,24.78
2022-08-26T06:45:52.141Z,24.93
2022-08-26T06:48:20.034Z,25.19
2022-08-26T06:50:46.561Z,25.20
2022-08-26T06:53:17.018Z,24.70
2022-08-26T06:55:46.063Z,24.83
2022-08-26T06:58:13.811Z,25.19
2022-08-26T07:00:40.457Z,25.21
2022-08-26T07:03:13.725Z,24.98
2022-08-26T07:05:40.697Z,25.70
2022-08-26T07:08:07.191Z,25.41
2022-08-26T07:10:35.769Z,25.54
2022-08-26T07:13:02.793Z,26.36
2022-08-26T07:15:31.371Z,26.69
2022-08-26T07:17:58.188Z,26.67
2022-08-26T07:20:24.792Z,26.60
2022-08-26T07:22:51.554Z,26.70
2022-08-26T07:25:19.306Z,26.69
2022-08-26T07:27:46.833Z,26.66
2022-08-26T07:30:20.845Z,26.93
2022-08-26T07:32:47.582Z,27.41
2022-08-26T07:35:14.658Z,27.43
2022-08-26T07:37:42.281Z,27.99
2022-08-26T07:40:09.435Z,28.54
2022-08-26T07:42:36.008Z,27.64
2022-08-26T07:45:02.501Z,28.12
2022-08-26T07:47:29.026Z,28.15
2022-08-26T07:49:56.631Z,27.83
2022-08-26T07:52:26.988Z,28.62
2022-08-26T07:54:54.160Z,29.73
2022-08-26T07:57:21.004Z,29.88
2022-08-26T07:59:47.506Z,29.76
2022-08-26T08:02:14.032Z,29.64
2022-08-26T08:04:40.650Z,28.49
2022-08-26T08:07:07.583Z,30.14
2022-08-26T08:09:38.094Z,29.94
2022-08-26T08:12:07.739Z,29.45
2022-08-26T08:14:36.488Z,28.58
2022-08-26T08:17:03.839Z,29.49
2022-08-26T08:19:39.126Z,29.96
2022-08-26T08:22:13.319Z,29.70
2022-08-26T08:24:45.085Z,29.61
2022-08-26T08:27:11.610Z,31.04
2022-08-26T08:29:38.616Z,31.31
2022-08-26T08:32:05.580Z,31.76
2022-08-26T08:34:38.346Z,30.33
2022-08-26T08:37:08.606Z,31.20
2022-08-26T08:39:37.112Z,30.27
2022-08-26T08:42:07.825Z,31.40
2022-08-26T08:44:37.337Z,30.59
2022-08-26T08:47:13.133Z,30.80
2022-08-26T08:49:39.753Z,32.11
2022-08-26T08:52:08.967Z,31.33
2022-08-26T08:54:38.180Z,32.02
2022-08-26T08:57:04.739Z,32.33
2022-08-26T08:59:32.602Z,32.65
2022-08-26T09:02:25.682Z,32.71
2022-08-26T09:05:02.330Z,33.03
2022-08-26T09:07:40.227Z,32.35
2022-08-26T09:10:25.527Z,33.19
2022-08-26T09:12:52.230Z,32.33
2022-08-26T09:15:28.562Z,31.73
2022-08-26T09:18:06.786Z,32.47
2022-08-26T09:20:48.676Z,32.09
2022-08-26T09:23:15.821Z,31.77
2022-08-26T09:25:55.678Z,32.20
2022-08-26T09:28:23.334Z,31.36
2022-08-26T09:31:11.531Z,31.73
2022-08-26T09:33:38.386Z,32.27
2022-08-26T09:36:15.638Z,31.49
2022-08-26T09:38:42.761Z,31.05
2022-08-26T09:41:27.138Z,31.71
2022-08-26T09:44:14.734Z,32.85
2022-08-26T09:46:54.266Z,33.29
2022-08-26T09:49:20.758Z,32.19
2022-08-26T09:51:50.095Z,33.08
2022-08-26T09:54:30.491Z,32.64
2022-08-26T09:57:31.532Z,34.25
2022-08-26T10:00:01.255Z,31.93
2022-08-26T10:02:40.638Z,33.15
2022-08-26T10:05:17.103Z,32.74
2022-08-26T10:07:48.708Z,32.54
2022-08-26T10:10:31.418Z,32.49
2022-08-26T10:13:09.178Z,32.48
2022-08-26T10:15:45.376Z,34.18
2022-08-26T10:18:27.899Z,34.63
2022-08-26T10:21:23.835Z,34.60
2022-08-26T10:23:51.893Z,34.34
2022-08-26T10:26:24.459Z,33.92
2022-08-26T10:28:51.067Z,33.75
2022-08-26T10:31:27.681Z,34.79
2022-08-26T10:33:58.662Z,34.24
2022-08-26T10:37:10.639Z,34.06
2022-08-26T10:39:39.263Z,32.57
2022-08-26T10:42:13.784Z,34.37
2022-08-26T10:44:43.844Z,31.97
2022-08-26T10:47:16.705Z,32.59
2022-08-26T10:49:45.903Z,33.48
2022-08-26T10:52:21.981Z,33.20
2022-08-26T10:55:03.099Z,33.51
2022-08-26T10:57:48.326Z,31.63
2022-08-26T11:01:03.425Z,33.90
2022-08-26T11:03:43.435Z,33.55
2022-08-26T11:06:15.724Z,33.11
2022-08-26T11:08:50.414Z,33.64
2022-08-26T11:11:35.586Z,32.19
2022-08-26T11:14:07.287Z,34.63
2022-08-26T11:16:33.781Z,35.68
2022-08-26T11:19:01.203Z,35.39
2022-08-26T11:21:43.496Z,35.03
2022-08-26T11:24:31.804Z,35.42
2022-08-26T11:26:58.283Z,35.41
2022-08-26T11:29:43.618Z,34.47
2022-08-26T11:32:23.734Z,35.03
2022-08-26T11:34:52.465Z,35.63
2022-08-26T11:39:55.488Z,35.24
2022-08-26T11:42:31.526Z,36.43
2022-08-26T11:44:59.857Z,36.29
2022-08-26T11:47:30.140Z,36.60
2022-08-26T11:50:09.491Z,35.25
2022-08-26T11:52:36.735Z,35.17
2022-08-26T11:55:03.330Z,33.80
2022-08-26T11:57:31.544Z,35.45
2022-08-26T11:59:58.542Z,35.63
2022-08-26T12:02:26.163Z,36.43
2022-08-26T12:04:53.531Z,36.24
2022-08-26T12:07:27.549Z,36.31
2022-08-26T12:10:00.510Z,34.58
2022-08-26T12:12:34.696Z,33.94
2022-08-26T12:15:04.632Z,35.52
2022-08-26T12:17:31.853Z,36.99
2022-08-26T12:19:58.444Z,38.05
2022-08-26T12:22:30.346Z,36.58
2022-08-26T12:25:01.279Z,35.84
2022-08-26T12:27:32.146Z,35.44
2022-08-26T12:30:08.496Z,35.42
2022-08-26T12:32:35.924Z,35.53
2022-08-26T12:35:10.492Z,34.57
2022-08-26T12:37:39.937Z,35.73
2022-08-26T12:40:25.785Z,35.01
2022-08-26T12:42:53.327Z,36.03
2022-08-26T12:45:46.200Z,35.86
2022-08-26T12:48:26.886Z,35.13
2022-08-26T12:50:53.714Z,35.32
2022-08-26T12:53:20.223Z,34.56
2022-08-26T12:55:48.286Z,33.73
2022-08-26T12:58:23.833Z,34.59
2022-08-26T13:00:58.281Z,33.75
2022-08-26T13:03:30.961Z,35.07
2022-08-26T13:06:09.492Z,35.60
2022-08-26T13:08:46.730Z,34.31
2022-08-26T13:11:18.452Z,34.46
2022-08-26T13:13:45.708Z,34.57
2022-08-26T13:16:14.029Z,35.02
2022-08-26T13:18:40.562Z,34.66
2022-08-26T13:21:17.673Z,34.62
2022-08-26T13:23:44.624Z,35.48
2022-08-26T13:26:11.494Z,35.92
2022-08-26T13:28:38.027Z,35.61
2022-08-26T13:31:04.972Z,34.39
2022-08-26T13:33:32.562Z,34.96
2022-08-26T13:35:59.430Z,35.28
2022-08-26T13:38:33.586Z,34.85
2022-08-26T13:41:02.590Z,34.93
2022-08-26T13:43:29.743Z,34.65
2022-08-26T13:45:56.662Z,34.01
2022-08-26T13:48:23.715Z,34.16
2022-08-26T13:50:50.679Z,34.05
2022-08-26T13:53:17.612Z,33.68
2022-08-26T13:55:44.359Z,34.69
2022-08-26T13:58:12.194Z,34.26
2022-08-26T14:00:39.662Z,34.08
2022-08-26T14:03:10.156Z,33.14
2022-08-26T14:05:39.245Z,34.69
2022-08-26T14:08:06.240Z,34.26
2022-08-26T14:10:33.523Z,34.37
2022-08-26T14:13:00.090Z,33.65
2022-08-26T14:15:26.934Z,33.34
2022-08-26T14:17:55.900Z,33.10
2022-08-26T14:20:24.965Z,34.30
2022-08-26T14:23:12.629Z,33.34
2022-08-26T14:25:39.121Z,32.81
2022-08-26T14:28:05.617Z,33.09
2022-08-26T14:30:32.314Z,32.82
2022-08-26T14:33:01.783Z,32.05
2022-08-26T14:35:30.824Z,32.94
2022-08-26T14:37:57.486Z,33.46
2022-08-26T14:40:27.239Z,33.25
2022-08-26T14:42:54.405Z,33.37
2022-08-26T14:45:22.614Z,33.50
2022-08-26T14:47:49.995Z,33.34
2022-08-26T14:50:18.630Z,32.50
2022-08-26T14:53:17.537Z,33.11
2022-08-26T14:55:44.929Z,33.11
2022-08-26T14:58:11.487Z,32.35
2022-08-26T15:00:38.231Z,32.47
2022-08-26T15:03:05.607Z,32.86
2022-08-26T15:05:33.025Z,32.93
2022-08-26T15:07:59.534Z,32.52
2022-08-26T15:10:26.156Z,32.28
2022-08-26T15:12:52.686Z,32.26
2022-08-26T15:15:21.483Z,32.12
2022-08-26T15:17:51.020Z,32.48
2022-08-26T15:20:20.901Z,32.52
2022-08-26T15:22:48.369Z,32.49
2022-08-26T15:25:17.446Z,32.15
2022-08-26T15:27:47.145Z,32.02
2022-08-26T15:30:18.202Z,31.78
2022-08-26T15:32:47.831Z,31.74
2022-08-26T15:35:20.316Z,32.05
2022-08-26T15:37:47.454Z,31.70
2022-08-26T15:40:14.094Z,31.83
2022-08-26T15:42:40.719Z,31.54
2022-08-26T15:45:07.500Z,31.44
2022-08-26T15:47:48.402Z,31.13
2022-08-26T15:50:20.960Z,31.38
2022-08-26T15:52:47.874Z,31.12
2022-08-26T15:55:14.411Z,31.35
2022-08-26T15:57:40.986Z,31.41
2022-08-26T16:00:09.665Z,31.11
2022-08-26T16:02:38.693Z,31.03
2022-08-26T16:05:05.324Z,31.17
2022-08-26T16:07:32.111Z,31.14
2022-08-26T16:09:58.911Z,31.32
2022-08-26T16:12:25.390Z,30.80
2022-08-26T16:14:53.861Z,30.90
2022-08-26T16:17:20.421Z,30.78
2022-08-26T16:22:43.079Z,30.53
2022-08-26T16:25:09.987Z,30.53
2022-08-26T16:27:36.643Z,30.33
2022-08-26T16:30:06.968Z,30.20
2022-08-26T16:32:33.554Z,30.25
2022-08-26T16:35:00.114Z,29.90
2022-08-26T16:37:26.683Z,29.60
2022-08-26T16:39:53.270Z,29.43
2022-08-26T16:42:19.838Z,29.44
2022-08-26T16:44:46.462Z,29.30
2022-08-26T16:47:14.357Z,29.04
2022-08-26T16:49:41.711Z,28.98
2022-08-26T16:52:09.065Z,28.35
2022-08-26T16:54:35.955Z,28.09
2022-08-26T16:57:02.524Z,27.84
2022-08-26T16:59:29.198Z,27.91
2022-08-26T17:01:55.845Z,27.91
2022-08-26T17:04:22.471Z,27.76
2022-08-26T17:06:49.026Z,27.64
2022-08-26T17:09:15.746Z,27.41
2022-08-26T17:11:42.547Z,27.30
2022-08-26T17:14:09.619Z,27.13
2022-08-26T17:16:36.249Z,27.01
2022-08-26T17:19:04.430Z,26.99
2022-08-26T17:21:31.913Z,26.84
2022-08-26T17:23:59.299Z,26.83
2022-08-26T17:26:26.711Z,26.63
2022-08-26T17:28:53.538Z,26.65
2022-08-26T17:31:20.443Z,26.48
2022-08-26T17:33:53.379Z,26.68
2022-08-26T17:36:20.264Z,26.82
2022-08-26T17:38:46.762Z,26.32
2022-08-26T17:41:16.450Z,26.18
2022-08-26T17:43:43.083Z,26.05
2022-08-26T17:46:10.106Z,25.70
2022-08-26T17:48:37.352Z,25.89
2022-08-26T17:51:08.192Z,25.93
2022-08-26T17:53:34.870Z,25.76
2022-08-26T17:56:01.547Z,25.42
2022-08-26T17:58:28.745Z,25.45
2022-08-26T18:00:55.598Z,25.70
2022-08-26T18:03:22.887Z,25.54
2022-08-26T18:05:52.811Z,25.43
2022-08-26T18:08:20.034Z,25.45
2022-08-26T18:10:47.071Z,25.34
2022-08-26T18:13:14.877Z,25.26
2022-08-26T18:15:45.531Z,25.35
2022-08-26T18:18:13.709Z,25.39
2022-08-26T18:20:41.142Z,25.23
2022-08-26T18:23:07.691Z,24.95
2022-08-26T18:25:34.269Z,24.99
2022-08-26T18:28:00.920Z,25.01
2022-08-26T18:30:27.530Z,24.88
2022-08-26T18:32:54.030Z,25.05
2022-08-26T18:35:21.497Z,24.99
2022-08-26T18:37:48.128Z,25.05
2022-08-26T18:40:16.104Z,24.97
2022-08-26T18:42:42.768Z,25.14
2022-08-26T18:45:09.648Z,25.02
2022-08-26T18:47:42.621Z,24.97
2022-08-26T18:50:10.821Z,24.98
2022-08-26T18:52:37.658Z,24.60
2022-08-26T18:55:04.355Z,24.41
2022-08-26T18:57:30.905Z,24.44
2022-08-26T18:59:57.666Z,24.78
2022-08-26T19:02:24.484Z,24.54
2022-08-26T19:04:51.813Z,24.41
2022-08-26T19:07:19.256Z,24.36
2022-08-26T19:09:45.757Z,24.35
2022-08-26T19:12:12.333Z,24.02
2022-08-26T19:14:38.866Z,23.94
2022-08-26T19:17:05.581Z,24.11
2022-08-26T19:19:32.182Z,23.91
2022-08-26T19:21:58.989Z,23.57
2022-08-26T19:24:27.445Z,23.74
2022-08-26T19:26:58.101Z,23.92
2022-08-26T19:29:26.872Z,23.98
2022-08-26T19:31:53.409Z,23.65
2022-08-26T19:34:20.707Z,23.75
2022-08-26T19:36:47.702Z,23.75
2022-08-26T19:39:14.227Z,23.70
2022-08-26T19:41:40.865Z,23.55
2022-08-26T19:44:12.875Z,23.60
2022-08-26T19:46:39.873Z,23.73
2022-08-26T19:49:06.402Z,23.84
2022-08-26T19:51:33.697Z,23.78
2022-08-26T19:54:01.107Z,23.71
2022-08-26T19:56:28.068Z,23.65
2022-08-26T19:58:55.172Z,23.66
2022-08-26T20:01:22.252Z,23.58
2022-08-26T20:03:48.890Z,23.61
2022-08-26T20:06:16.185Z,23.37
2022-08-26T20:08:43.231Z,23.41
2022-08-26T20:11:12.637Z,23.29
2022-08-26T20:13:39.832Z,23.37
2022-08-26T20:16:06.505Z,23.32
2022-08-26T20:18:51.778Z,23.14
2022-08-26T20:21:27.337Z,23.27
2022-08-26T20:23:58.256Z,22.92
2022-08-26T20:26:25.238Z,22.92
2022-08-26T20:28:51.786Z,22.74
2022-08-26T20:31:19.403Z,22.77
2022-08-26T20:33:46.764Z,22.66
2022-08-26T20:36:13.814Z,22.71
2022-08-26T20:38:40.298Z,22.70
2022-08-26T20:41:06.806Z,22.48
2022-08-26T20:43:33.377Z,22.71
2022-08-26T20:46:00.702Z,22.65
2022-08-26T20:48:27.251Z,22.67
2022-08-26T20:50:56.999Z,22.69
2022-08-26T20:53:24.301Z,22.65
2022-08-26T20:55:53.764Z,22.50
2022-08-26T20:58:23.101Z,22.53
2022-08-26T21:00:50.056Z,22.57
2022-08-26T21:03:16.630Z,22.24
2022-08-26T21:05:43.169Z,22.18
2022-08-26T21:08:09.954Z,22.25
2022-08-26T21:10:39.323Z,22.28
2022-08-26T21:13:05.902Z,22.36
2022-08-26T21:15:32.546Z,22.38
2022-08-26T21:17:59.795Z,22.29
2022-08-26T21:20:26.355Z,22.12
2022-08-26T21:22:52.863Z,22.17
2022-08-26T21:25:19.412Z,22.20
2022-08-26T21:27:45.982Z,22.28
2022-08-26T21:30:14.074Z,22.31
2022-08-26T21:32:40.686Z,22.03
2022-08-26T21:35:07.497Z,22.21
2022-08-26T21:37:34.270Z,21.99
2022-08-26T21:40:04.888Z,21.98
2022-08-26T21:42:33.334Z,22.06
2022-08-26T21:44:59.986Z,22.06
2022-08-26T21:47:26.543Z,21.92
2022-08-26T21:49:53.421Z,21.88
2022-08-26T21:52:21.223Z,21.95
2022-08-26T21:54:49.194Z,21.87
2022-08-26T21:57:16.327Z,21.73
2022-08-26T21:59:42.798Z,21.73
2022-08-26T22:02:09.303Z,21.55
2022-08-26T22:04:36.106Z,21.53
2022-08-26T22:07:03.452Z,21.42
2022-08-26T22:09:33.466Z,21.35
2022-08-26T22:12:00.566Z,21.46
2022-08-26T22:14:30.656Z,21.48
2022-08-26T22:16:58.332Z,21.33
2022-08-26T22:19:24.961Z,21.37
2022-08-26T22:21:52.893Z,21.48
2022-08-26T22:24:20.675Z,21.45
2022-08-26T22:26:47.938Z,21.33
2022-08-26T22:29:14.953Z,21.55
2022-08-26T22:31:43.373Z,21.45
2022-08-26T22:34:11.878Z,21.51
2022-08-26T22:36:43.562Z,21.21
2022-08-26T22:39:11.913Z,21.25
2022-08-26T22:41:38.433Z,21.25
2022-08-26T22:44:05.177Z,21.40
2022-08-26T22:46:34.715Z,21.45
2022-08-26T22:49:01.424Z,21.33
2022-08-26T22:51:28.141Z,21.31
2022-08-26T22:53:54.780Z,21.32
2022-08-26T22:56:22.067Z,21.27
2022-08-26T22:58:48.851Z,21.23
2022-08-26T23:01:16.857Z,21.42
2022-08-26T23:03:44.095Z,21.41
2022-08-26T23:06:10.769Z,21.11
2022-08-26T23:08:38.382Z,21.11
2022-08-26T23:11:08.278Z,21.20
2022-08-26T23:13:34.790Z,21.03
2022-08-26T23:16:02.382Z,21.06
2022-08-26T23:18:29.008Z,21.17
2022-08-26T23:20:56.816Z,21.13
2022-08-26T23:23:23.958Z,21.26
2022-08-26T23:25:50.434Z,21.44
2022-08-26T23:28:17.510Z,21.05
2022-08-26T23:30:44.063Z,20.97
2022-08-26T23:33:10.568Z,20.78
2022-08-26T23:35:37.065Z,20.72
2022-08-26T23:38:05.162Z,20.81
2022-08-26T23:40:33.169Z,20.79
2022-08-26T23:43:01.293Z,20.81
2022-08-26T23:45:27.831Z,20.86
2022-08-26T23:47:54.799Z,21.43
2022-08-26T23:50:22.293Z,21.19
2022-08-26T23:53:08.614Z,21.06
2022-08-26T23:55:38.881Z,20.84
2022-08-26T23:58:05.842Z,20.86
